Time;durP1;ratioP1;P1;durP2;ratioP2;P2;SDS_P1;SDS_P2;PMS_P1;PMS_P2;Temp;Humidity;BMP_temperature;BMP_pressure;BME280_temperature;BME280_humidity;BME280_pressure;Samples;Min_cycle;Max_cycle;Signal;HPM_P1;HPM_P2
2024/01/03 00:02:58;;;;;;;28.60;12.53;;;;;;;;;;10131658;29;20574;-79
2024/01/03 00:07:59;;;;;;;17.27;10.03;;;;;;;;;;10130661;29;20037;-80
2024/01/03 00:13:06;;;;;;;20.33;10.43;;;;;;;;;;10129647;29;20141;-79
2024/01/03 00:18:14;;;;;;;19.67;10.83;;;;;;;;;;10131001;29;20032;-80
2024/01/03 00:23:15;;;;;;;21.77;11.43;;;;;;;;;;10129428;29;20025;-80
2024/01/03 00:28:16;;;;;;;14.10;9.03;;;;;;;;;;10126861;29;20056;-81
2024/01/03 00:33:18;;;;;;;23.23;11.87;;;;;;;;;;10119453;29;20069;-80
2024/01/03 00:38:19;;;;;;;21.07;10.80;;;;;;;;;;10127261;29;20041;-79
2024/01/03 00:43:20;;;;;;;21.00;10.27;;;;;;;;;;10129484;29;20044;-80
2024/01/03 00:48:21;;;;;;;15.57;8.87;;;;;;;;;;10129164;29;20032;-80
2024/01/03 00:53:23;;;;;;;19.37;9.67;;;;;;;;;;10129346;29;20504;-80
2024/01/03 00:58:24;;;;;;;12.73;7.23;;;;;;;;;;10128300;29;20047;-79
2024/01/03 01:03:25;;;;;;;11.60;6.70;;;;;;;;;;10128271;29;20774;-80
2024/01/03 01:08:26;;;;;;;15.53;7.40;;;;;;;;;;10122972;29;20029;-80
2024/01/03 01:13:27;;;;;;;14.13;6.50;;;;;;;;;;10125497;29;20048;-80
2024/01/03 01:18:28;;;;;;;11.83;6.37;;;;;;;;;;10129040;29;20048;-79
2024/01/03 01:23:30;;;;;;;11.10;5.60;;;;;;;;;;10125549;29;20056;-81
2024/01/03 01:28:30;;;;;;;11.20;6.17;;;;;;;;;;10124212;29;20068;-81
2024/01/03 01:33:31;;;;;;;8.30;5.40;;;;;;;;;;10120126;29;20040;-80
2024/01/03 01:38:32;;;;;;;11.90;6.40;;;;;;;;;;10128244;29;20154;-80
2024/01/03 01:43:33;;;;;;;10.53;6.40;;;;;;;;;;10124266;29;20046;-80
2024/01/03 01:48:35;;;;;;;8.90;5.90;;;;;;;;;;10127690;29;20040;-80
2024/01/03 01:53:36;;;;;;;11.40;4.37;;;;;;;;;;10127275;29;20041;-80
2024/01/03 01:58:38;;;;;;;6.60;4.07;;;;;;;;;;10102893;29;20039;-80
2024/01/03 02:03:48;;;;;;;8.70;5.43;;;;;;;;;;10116918;29;20035;-80
2024/01/03 02:08:49;;;;;;;8.43;5.07;;;;;;;;;;10126295;29;20032;-80
2024/01/03 02:13:50;;;;;;;11.67;5.40;;;;;;;;;;10121612;29;20051;-80
2024/01/03 02:18:51;;;;;;;8.80;4.30;;;;;;;;;;10120004;29;20385;-80
2024/01/03 02:23:52;;;;;;;7.70;3.33;;;;;;;;;;10126061;29;20131;-82
2024/01/03 02:28:53;;;;;;;4.73;2.90;;;;;;;;;;10114964;29;20068;-80
2024/01/03 02:33:55;;;;;;;7.23;3.47;;;;;;;;;;10126393;29;20128;-80
2024/01/03 02:38:56;;;;;;;6.30;3.33;;;;;;;;;;10124523;29;20708;-81
2024/01/03 02:43:57;;;;;;;6.33;3.60;;;;;;;;;;10119030;29;20036;-80
2024/01/03 02:49:00;;;;;;;7.13;4.00;;;;;;;;;;10121553;29;20065;-81
2024/01/03 02:54:01;;;;;;;7.67;4.70;;;;;;;;;;10126327;29;20033;-80
2024/01/03 02:59:02;;;;;;;6.10;4.17;;;;;;;;;;10122348;29;20537;-81
2024/01/03 03:04:10;;;;;;;8.13;4.50;;;;;;;;;;10123869;29;20136;-81
2024/01/03 03:09:11;;;;;;;8.80;4.87;;;;;;;;;;10121817;29;20036;-80
2024/01/03 03:14:14;;;;;;;11.67;5.80;;;;;;;;;;10124322;29;20056;-80
2024/01/03 03:19:15;;;;;;;12.97;5.73;;;;;;;;;;10113450;29;20048;-80
2024/01/03 03:24:16;;;;;;;8.63;4.60;;;;;;;;;;10125955;29;20051;-82
2024/01/03 03:29:17;;;;;;;10.57;5.20;;;;;;;;;;10122747;29;20679;-79
2024/01/03 03:34:19;;;;;;;10.07;5.90;;;;;;;;;;10123124;29;20077;-82
2024/01/03 03:39:20;;;;;;;12.10;6.37;;;;;;;;;;10121138;29;20039;-81
2024/01/03 03:44:21;;;;;;;13.73;7.30;;;;;;;;;;10122850;29;20051;-80
2024/01/03 03:49:22;;;;;;;14.57;6.97;;;;;;;;;;10123874;29;20041;-80
2024/01/03 03:54:23;;;;;;;15.63;7.67;;;;;;;;;;10121917;29;20573;-80
2024/01/03 03:59:24;;;;;;;17.03;9.00;;;;;;;;;;10122248;29;20396;-80
2024/01/03 04:04:25;;;;;;;16.20;10.03;;;;;;;;;;10110698;29;20042;-79
2024/01/03 04:09:26;;;;;;;21.07;11.70;;;;;;;;;;10122911;29;20032;-80
2024/01/03 04:14:27;;;;;;;17.57;10.30;;;;;;;;;;10122132;29;20084;-79
2024/01/03 04:19:30;;;;;;;22.63;13.03;;;;;;;;;;10120217;29;20074;-80
2024/01/03 04:24:31;;;;;;;27.80;15.37;;;;;;;;;;10109931;29;20049;-84
2024/01/03 04:29:32;;;;;;;22.87;14.67;;;;;;;;;;10128646;29;20032;-79
2024/01/03 04:34:33;;;;;;;23.20;14.47;;;;;;;;;;10122683;29;20076;-81
2024/01/03 04:39:34;;;;;;;23.47;14.23;;;;;;;;;;10125811;29;20041;-80
2024/01/03 04:44:35;;;;;;;20.50;11.77;;;;;;;;;;10123515;29;20380;-80
2024/01/03 04:49:36;;;;;;;15.60;7.23;;;;;;;;;;10128880;29;20037;-81
2024/01/03 04:54:37;;;;;;;13.60;6.67;;;;;;;;;;10125934;29;20127;-83
2024/01/03 04:59:38;;;;;;;12.13;6.83;;;;;;;;;;10125443;29;20037;-80
2024/01/03 05:04:39;;;;;;;11.77;6.10;;;;;;;;;;10124693;29;20374;-81
2024/01/03 05:09:40;;;;;;;13.57;7.60;;;;;;;;;;10129785;29;20036;-82
2024/01/03 05:14:41;;;;;;;14.50;8.00;;;;;;;;;;10128186;29;20119;-82
2024/01/03 05:19:43;;;;;;;17.50;10.70;;;;;;;;;;10128346;29;20044;-80
2024/01/03 05:24:44;;;;;;;17.43;10.60;;;;;;;;;;10113649;29;20059;-83
2024/01/03 05:29:45;;;;;;;22.97;13.00;;;;;;;;;;10124788;29;20392;-81
2024/01/03 05:34:46;;;;;;;24.73;15.67;;;;;;;;;;10125501;29;20048;-81
2024/01/03 05:39:54;;;;;;;33.07;19.53;;;;;;;;;;10126892;29;20080;-82
2024/01/03 05:44:55;;;;;;;42.20;25.53;;;;;;;;;;10124657;29;20028;-80
2024/01/03 05:49:56;;;;;;;38.83;24.00;;;;;;;;;;10128093;29;20393;-81
2024/01/03 05:55:00;;;;;;;32.03;18.73;;;;;;;;;;10127026;29;20056;-83
2024/01/03 06:00:03;;;;;;;34.23;20.93;;;;;;;;;;10117477;29;20048;-81
2024/01/03 06:05:04;;;;;;;30.43;16.87;;;;;;;;;;10124232;29;20378;-82
2024/01/03 06:10:05;;;;;;;28.07;17.40;;;;;;;;;;10155214;29;20118;-81
2024/01/03 06:15:07;;;;;;;34.73;20.27;;;;;;;;;;10126742;29;20040;-80
2024/01/03 06:20:08;;;;;;;35.17;19.63;;;;;;;;;;10128053;29;20632;-80
2024/01/03 06:25:17;;;;;;;36.70;21.13;;;;;;;;;;10149825;29;20064;-81
2024/01/03 06:30:18;;;;;;;35.30;20.17;;;;;;;;;;10146256;29;20032;-82
2024/01/03 06:35:19;;;;;;;29.33;17.73;;;;;;;;;;10131422;29;20136;-79
2024/01/03 06:40:20;;;;;;;27.10;16.20;;;;;;;;;;10138630;29;20029;-80
2024/01/03 06:45:21;;;;;;;23.97;14.10;;;;;;;;;;10116164;29;20510;-80
2024/01/03 06:50:22;;;;;;;19.17;11.50;;;;;;;;;;10138517;29;20047;-80
2024/01/03 06:55:24;;;;;;;21.27;11.73;;;;;;;;;;10141693;29;20055;-82
2024/01/03 07:00:25;;;;;;;17.03;10.77;;;;;;;;;;10123520;29;20464;-80
2024/01/03 07:05:26;;;;;;;23.30;13.03;;;;;;;;;;10135770;29;20040;-81
2024/01/03 07:10:31;;;;;;;28.03;16.47;;;;;;;;;;10130043;29;20041;-84
2024/01/03 07:15:32;;;;;;;22.90;13.32;;;;;;;;;;10125083;29;20442;-81
2024/01/03 07:20:33;;;;;;;26.33;15.77;;;;;;;;;;10131946;29;20048;-80
2024/01/03 07:25:34;;;;;;;21.63;13.30;;;;;;;;;;10123853;29;20061;-82
2024/01/03 07:30:36;;;;;;;19.73;12.07;;;;;;;;;;10116624;29;20131;-81
2024/01/03 07:35:37;;;;;;;21.90;10.80;;;;;;;;;;10111934;29;20110;-81
2024/01/03 07:40:38;;;;;;;15.80;8.97;;;;;;;;;;10113421;29;20044;-81
2024/01/03 07:45:39;;;;;;;15.97;9.60;;;;;;;;;;10124593;29;20048;-83
2024/01/03 07:50:40;;;;;;;18.50;10.70;;;;;;;;;;10103294;29;20049;-82
2024/01/03 07:55:41;;;;;;;22.83;12.03;;;;;;;;;;10112678;29;20426;-81
2024/01/03 08:00:42;;;;;;;20.50;11.93;;;;;;;;;;10126712;29;20072;-81
2024/01/03 08:05:43;;;;;;;16.30;9.33;;;;;;;;;;10116346;29;20037;-81
2024/01/03 08:10:44;;;;;;;14.67;9.03;;;;;;;;;;10122833;29;20035;-81
2024/01/03 08:15:45;;;;;;;16.90;9.07;;;;;;;;;;10111491;29;20188;-81
2024/01/03 08:20:46;;;;;;;11.77;7.93;;;;;;;;;;10150424;29;20028;-81
2024/01/03 08:25:48;;;;;;;14.30;8.73;;;;;;;;;;10133423;29;20759;-81
2024/01/03 08:30:49;;;;;;;16.93;10.07;;;;;;;;;;10127531;29;20485;-81
2024/01/03 08:35:50;;;;;;;15.67;8.83;;;;;;;;;;10132355;29;20045;-81
2024/01/03 08:40:51;;;;;;;17.07;9.63;;;;;;;;;;10131606;29;20481;-82
2024/01/03 08:45:52;;;;;;;18.33;9.80;;;;;;;;;;10124735;29;20089;-81
2024/01/03 08:50:53;;;;;;;16.50;10.57;;;;;;;;;;10127151;29;20048;-81
2024/01/03 08:55:54;;;;;;;17.13;9.43;;;;;;;;;;10100068;29;20044;-81
2024/01/03 09:00:55;;;;;;;20.50;9.87;;;;;;;;;;10117044;29;20477;-82
2024/01/03 09:05:56;;;;;;;17.47;9.17;;;;;;;;;;10120451;29;20107;-81
2024/01/03 09:10:57;;;;;;;18.43;10.53;;;;;;;;;;10126244;29;20692;-82
2024/01/03 09:15:58;;;;;;;18.10;8.80;;;;;;;;;;10127371;29;20040;-80
2024/01/03 09:21:03;;;;;;;22.30;12.03;;;;;;;;;;10128679;29;20096;-81
2024/01/03 09:26:04;;;;;;;15.83;8.57;;;;;;;;;;10111475;29;20155;-81
2024/01/03 09:31:06;;;;;;;21.40;9.13;;;;;;;;;;10128714;29;20036;-81
2024/01/03 09:36:16;;;;;;;16.93;8.40;;;;;;;;;;10127760;29;20032;-82
2024/01/03 09:41:18;;;;;;;14.43;7.70;;;;;;;;;;10126994;29;22072;-81
2024/01/03 09:46:20;;;;;;;12.93;6.97;;;;;;;;;;10120782;29;20039;-81
2024/01/03 09:51:21;;;;;;;13.43;7.53;;;;;;;;;;10126223;29;20052;-81
2024/01/03 09:56:22;;;;;;;14.93;8.27;;;;;;;;;;10126142;29;20100;-80
2024/01/03 10:01:24;;;;;;;13.83;6.73;;;;;;;;;;10152287;29;20036;-82
2024/01/03 10:06:26;;;;;;;13.87;7.20;;;;;;;;;;10139492;29;20032;-81
2024/01/03 10:11:34;;;;;;;12.50;7.00;;;;;;;;;;10137926;29;20063;-81
2024/01/03 10:16:35;;;;;;;13.63;7.20;;;;;;;;;;10139988;29;20051;-80
2024/01/03 10:21:38;;;;;;;13.80;7.20;;;;;;;;;;10154374;29;20472;-81
2024/01/03 10:26:54;;;;;;;13.87;7.10;;;;;;;;;;10120024;29;20056;-81
2024/01/03 10:31:57;;;;;;;12.97;7.80;;;;;;;;;;10146338;29;20052;-82
2024/01/03 10:36:58;;;;;;;13.50;7.77;;;;;;;;;;10130718;29;20063;-83
2024/01/03 10:42:01;;;;;;;15.53;8.80;;;;;;;;;;10126322;29;20040;-81
2024/01/03 10:47:03;;;;;;;16.70;9.77;;;;;;;;;;10129044;29;20044;-81
2024/01/03 10:52:05;;;;;;;17.57;9.80;;;;;;;;;;10125814;29;20065;-80
2024/01/03 10:57:07;;;;;;;19.77;11.70;;;;;;;;;;10133240;29;20082;-81
2024/01/03 11:02:17;;;;;;;16.63;9.27;;;;;;;;;;10154338;29;20032;-80
2024/01/03 11:07:39;;;;;;;14.53;7.67;;;;;;;;;;10127019;29;20035;-81
2024/01/03 11:12:40;;;;;;;16.70;9.17;;;;;;;;;;10118566;29;20457;-81
2024/01/03 11:17:41;;;;;;;13.30;7.83;;;;;;;;;;10140495;29;20040;-80
2024/01/03 11:22:55;;;;;;;13.40;7.67;;;;;;;;;;10137266;29;20039;-81
2024/01/03 11:28:15;;;;;;;11.90;7.80;;;;;;;;;;10154905;29;20094;-81
2024/01/03 11:33:24;;;;;;;15.10;8.10;;;;;;;;;;10149511;29;20041;-81
2024/01/03 11:38:39;;;;;;;14.70;8.13;;;;;;;;;;10154380;29;20836;-79
2024/01/03 11:43:47;;;;;;;16.70;8.53;;;;;;;;;;10136177;29;20044;-78
2024/01/03 11:48:48;;;;;;;19.23;10.87;;;;;;;;;;10129344;29;20408;-78
2024/01/03 11:53:49;;;;;;;14.60;7.70;;;;;;;;;;10155782;29;20028;-76
2024/01/03 11:58:57;;;;;;;16.80;9.13;;;;;;;;;;10128446;29;20043;-79
2024/01/03 12:04:25;;;;;;;14.60;9.07;;;;;;;;;;10155953;29;20037;-78
2024/01/03 12:09:31;;;;;;;14.83;7.60;;;;;;;;;;10128839;29;20136;-80
2024/01/03 12:14:32;;;;;;;16.27;8.33;;;;;;;;;;10114445;29;20048;-80
2024/01/03 12:19:33;;;;;;;13.63;7.87;;;;;;;;;;10136664;29;20039;-78
2024/01/03 12:24:38;;;;;;;15.97;8.53;;;;;;;;;;10144863;29;20040;-78
2024/01/03 12:29:39;;;;;;;14.27;8.10;;;;;;;;;;10151379;29;20095;-79
2024/01/03 12:34:40;;;;;;;14.30;8.27;;;;;;;;;;10137817;29;20396;-79
2024/01/03 12:39:42;;;;;;;22.83;11.60;;;;;;;;;;10140396;29;20041;-77
2024/01/03 12:44:43;;;;;;;14.63;6.90;;;;;;;;;;10121618;29;20049;-79
2024/01/03 12:49:44;;;;;;;22.23;10.47;;;;;;;;;;10125964;29;20037;-78
2024/01/03 12:54:45;;;;;;;15.67;7.17;;;;;;;;;;10118396;29;20057;-78
2024/01/03 12:59:47;;;;;;;11.60;5.83;;;;;;;;;;10128664;29;20036;-78
2024/01/03 13:04:48;;;;;;;10.53;5.43;;;;;;;;;;10102440;29;20682;-78
2024/01/03 13:09:49;;;;;;;8.27;3.90;;;;;;;;;;10112603;29;20036;-80
2024/01/03 13:14:50;;;;;;;11.53;4.13;;;;;;;;;;10124176;29;20036;-78
2024/01/03 13:19:52;;;;;;;8.47;3.83;;;;;;;;;;10133417;29;20051;-78
2024/01/03 13:24:53;;;;;;;8.73;4.23;;;;;;;;;;10139840;29;20501;-78
2024/01/03 13:29:54;;;;;;;8.03;3.17;;;;;;;;;;10137938;29;20052;-77
2024/01/03 13:34:55;;;;;;;9.40;3.70;;;;;;;;;;10145917;29;20066;-77
2024/01/03 13:39:56;;;;;;;8.17;3.70;;;;;;;;;;10143948;29;20024;-77
2024/01/03 13:44:58;;;;;;;6.47;3.70;;;;;;;;;;10117313;29;20095;-77
2024/01/03 13:49:59;;;;;;;10.75;5.20;;;;;;;;;;10139964;29;20036;-79
2024/01/03 13:55:01;;;;;;;15.67;8.93;;;;;;;;;;10156646;29;20464;-79
2024/01/03 14:00:02;;;;;;;15.53;8.27;;;;;;;;;;10130340;29;20044;-81
2024/01/03 14:05:04;;;;;;;21.08;11.15;;;;;;;;;;10141753;29;20048;-80
2024/01/03 14:10:07;;;;;;;47.10;19.87;;;;;;;;;;10145284;29;20083;-80
2024/01/03 14:15:12;;;;;;;27.63;10.27;;;;;;;;;;10136158;29;20040;-79
2024/01/03 14:20:14;;;;;;;22.43;10.00;;;;;;;;;;10145118;29;20108;-78
2024/01/03 14:25:16;;;;;;;22.00;9.65;;;;;;;;;;10129616;29;20048;-79
2024/01/03 14:30:17;;;;;;;22.73;10.30;;;;;;;;;;10142698;29;20088;-80
2024/01/03 14:35:19;;;;;;;25.38;12.05;;;;;;;;;;10140346;29;20045;-78
2024/01/03 14:40:25;;;;;;;25.03;11.60;;;;;;;;;;10126402;29;20033;-80
2024/01/03 14:45:27;;;;;;;25.23;13.52;;;;;;;;;;10123572;29;20398;-79
2024/01/03 14:50:28;;;;;;;23.97;14.43;;;;;;;;;;10125915;29;20036;-79
2024/01/03 14:55:30;;;;;;;26.33;15.20;;;;;;;;;;10124450;29;20045;-79
2024/01/03 15:00:31;;;;;;;25.10;14.77;;;;;;;;;;10130728;29;20676;-79
2024/01/03 15:05:34;;;;;;;27.07;14.17;;;;;;;;;;10123568;29;20048;-79
2024/01/03 15:10:36;;;;;;;25.03;11.70;;;;;;;;;;10123053;29;20396;-81
2024/01/03 15:15:37;;;;;;;60.13;26.80;;;;;;;;;;10124200;29;20037;-78
2024/01/03 15:20:39;;;;;;;27.23;13.50;;;;;;;;;;10117052;29;20450;-78
2024/01/03 15:25:41;;;;;;;27.27;13.63;;;;;;;;;;10137152;29;20040;-78
2024/01/03 15:30:49;;;;;;;29.83;13.17;;;;;;;;;;10125060;29;20040;-78
2024/01/03 15:35:51;;;;;;;22.30;11.30;;;;;;;;;;10119780;29;20051;-79
2024/01/03 15:40:52;;;;;;;23.83;10.47;;;;;;;;;;10139653;29;20559;-80
2024/01/03 15:45:54;;;;;;;20.20;8.97;;;;;;;;;;10131583;29;20044;-78
2024/01/03 15:50:55;;;;;;;19.53;8.97;;;;;;;;;;10124647;29;20040;-78
2024/01/03 15:55:56;;;;;;;21.10;10.47;;;;;;;;;;10120798;29;20036;-79
2024/01/03 16:00:57;;;;;;;25.23;11.50;;;;;;;;;;10111211;29;20485;-79
2024/01/03 16:05:58;;;;;;;36.93;17.07;;;;;;;;;;10116193;29;20609;-78
2024/01/03 16:10:59;;;;;;;25.60;12.47;;;;;;;;;;10131998;29;20132;-78
2024/01/03 16:16:01;;;;;;;27.53;13.40;;;;;;;;;;10134953;29;20048;-79
2024/01/03 16:21:02;;;;;;;33.83;14.13;;;;;;;;;;10138085;29;20028;-80
2024/01/03 16:26:03;;;;;;;35.80;15.73;;;;;;;;;;10151897;29;20061;-79
2024/01/03 16:31:05;;;;;;;34.80;14.33;;;;;;;;;;10145842;29;20058;-79
2024/01/03 16:36:06;;;;;;;29.90;12.33;;;;;;;;;;10139034;29;20028;-79
2024/01/03 16:41:07;;;;;;;33.13;14.13;;;;;;;;;;10130755;29;20036;-79
2024/01/03 16:46:09;;;;;;;33.10;15.37;;;;;;;;;;10131670;29;20111;-80
2024/01/03 16:51:11;;;;;;;27.80;13.00;;;;;;;;;;10129440;29;20040;-79
2024/01/03 16:56:12;;;;;;;28.33;14.23;;;;;;;;;;10124630;29;20128;-80
2024/01/03 17:01:14;;;;;;;33.43;15.70;;;;;;;;;;10129671;29;20047;-79
2024/01/03 17:06:15;;;;;;;29.53;15.40;;;;;;;;;;10110019;29;20033;-79
2024/01/03 17:11:23;;;;;;;37.73;18.60;;;;;;;;;;10128375;29;20037;-79
2024/01/03 17:16:24;;;;;;;35.10;17.37;;;;;;;;;;10127736;29;20489;-81
2024/01/03 17:21:34;;;;;;;31.70;15.37;;;;;;;;;;10136075;29;20044;-79
2024/01/03 17:26:36;;;;;;;29.93;15.70;;;;;;;;;;10123672;29;20421;-83
2024/01/03 17:31:37;;;;;;;32.97;17.40;;;;;;;;;;10118247;29;20103;-79
2024/01/03 17:36:38;;;;;;;37.17;19.77;;;;;;;;;;10150459;29;20043;-82
2024/01/03 17:41:51;;;;;;;39.67;22.67;;;;;;;;;;10131435;29;20115;-81
2024/01/03 17:46:52;;;;;;;37.63;21.90;;;;;;;;;;10134592;29;20123;-78
2024/01/03 17:51:53;;;;;;;31.37;17.20;;;;;;;;;;10129465;29;20124;-78
2024/01/03 17:56:54;;;;;;;34.67;18.40;;;;;;;;;;10122889;29;20044;-78
2024/01/03 18:01:55;;;;;;;30.20;17.93;;;;;;;;;;10124051;29;20036;-78
2024/01/03 18:06:57;;;;;;;40.57;22.40;;;;;;;;;;10126731;29;20036;-78
2024/01/03 18:11:58;;;;;;;45.13;24.40;;;;;;;;;;10122085;29;20559;-78
2024/01/03 18:17:08;;;;;;;40.67;22.40;;;;;;;;;;10125531;29;20047;-79
2024/01/03 18:22:11;;;;;;;45.40;24.47;;;;;;;;;;10123336;29;20036;-80
2024/01/03 18:27:13;;;;;;;36.87;21.37;;;;;;;;;;10125290;29;20548;-83
2024/01/03 18:32:14;;;;;;;52.30;29.17;;;;;;;;;;10124927;29;20043;-79
2024/01/03 18:37:15;;;;;;;42.33;19.90;;;;;;;;;;10111808;29;20151;-82
2024/01/03 18:42:16;;;;;;;41.17;22.17;;;;;;;;;;10124631;29;20077;-79
2024/01/03 18:47:17;;;;;;;37.87;17.23;;;;;;;;;;10108759;29;20041;-80
2024/01/03 18:52:19;;;;;;;36.37;18.20;;;;;;;;;;10126346;29;20119;-79
2024/01/03 18:57:20;;;;;;;37.20;17.93;;;;;;;;;;10119565;29;20044;-82
2024/01/03 19:02:21;;;;;;;36.50;16.70;;;;;;;;;;10125312;29;20408;-79
2024/01/03 19:07:23;;;;;;;48.27;22.00;;;;;;;;;;10124049;29;20044;-79
2024/01/03 19:12:24;;;;;;;37.43;18.90;;;;;;;;;;10125807;29;20040;-80
2024/01/03 19:17:26;;;;;;;30.17;14.63;;;;;;;;;;10125177;29;20033;-81
2024/01/03 19:22:29;;;;;;;33.37;16.33;;;;;;;;;;10124752;29;20057;-81
2024/01/03 19:27:31;;;;;;;30.07;15.83;;;;;;;;;;10122919;29;20069;-80
2024/01/03 19:32:32;;;;;;;26.13;14.97;;;;;;;;;;10124693;29;20401;-81
2024/01/03 19:37:34;;;;;;;35.70;16.27;;;;;;;;;;10123302;29;20128;-79
2024/01/03 19:42:37;;;;;;;32.23;14.90;;;;;;;;;;10115713;29;20048;-82
2024/01/03 19:47:38;;;;;;;20.97;10.63;;;;;;;;;;10124527;29;20045;-80
2024/01/03 19:52:39;;;;;;;27.63;10.17;;;;;;;;;;10130131;29;20389;-82
2024/01/03 19:57:42;;;;;;;16.57;7.60;;;;;;;;;;10126002;29;20044;-80
2024/01/03 20:02:50;;;;;;;24.70;10.40;;;;;;;;;;10131432;29;20041;-79
2024/01/03 20:07:58;;;;;;;15.83;7.63;;;;;;;;;;10125944;29;20037;-83
2024/01/03 20:12:59;;;;;;;22.23;10.40;;;;;;;;;;10126870;29;20041;-81
2024/01/03 20:18:00;;;;;;;19.07;8.07;;;;;;;;;;10130318;29;20037;-80
2024/01/03 20:23:01;;;;;;;14.87;6.77;;;;;;;;;;10129513;29;20033;-78
2024/01/03 20:28:02;;;;;;;13.00;6.40;;;;;;;;;;10130678;29;20425;-81
2024/01/03 20:33:03;;;;;;;16.00;7.13;;;;;;;;;;10130859;29;20059;-79
2024/01/03 20:38:04;;;;;;;15.07;6.97;;;;;;;;;;10127004;29;20393;-80
2024/01/03 20:43:05;;;;;;;14.30;7.10;;;;;;;;;;10129243;29;20040;-80
2024/01/03 20:48:07;;;;;;;17.10;7.33;;;;;;;;;;10129057;29;20466;-80
2024/01/03 20:53:07;;;;;;;20.00;9.47;;;;;;;;;;10128267;29;20499;-79
2024/01/03 20:58:08;;;;;;;19.57;9.80;;;;;;;;;;10128076;29;20044;-80
2024/01/03 21:03:10;;;;;;;16.40;7.60;;;;;;;;;;10130171;29;20117;-79
2024/01/03 21:08:11;;;;;;;13.53;6.17;;;;;;;;;;10123962;29;20068;-81
2024/01/03 21:13:12;;;;;;;14.57;6.53;;;;;;;;;;10124579;29;20044;-79
2024/01/03 21:18:13;;;;;;;13.93;6.30;;;;;;;;;;10128820;29;20700;-79
2024/01/03 21:23:14;;;;;;;16.90;6.87;;;;;;;;;;10126517;29;20032;-80
2024/01/03 21:28:15;;;;;;;20.23;7.53;;;;;;;;;;10128527;29;20063;-81
2024/01/03 21:33:16;;;;;;;15.20;6.20;;;;;;;;;;10127984;29;20083;-78
2024/01/03 21:38:17;;;;;;;16.20;6.83;;;;;;;;;;10126014;29;20380;-79
2024/01/03 21:43:25;;;;;;;12.93;5.80;;;;;;;;;;10128189;29;20032;-81
2024/01/03 21:48:26;;;;;;;12.47;5.77;;;;;;;;;;10129151;29;20036;-79
2024/01/03 21:53:27;;;;;;;11.43;4.67;;;;;;;;;;10126686;29;20092;-79
2024/01/03 21:58:28;;;;;;;10.50;4.73;;;;;;;;;;10127775;29;20028;-79
2024/01/03 22:03:29;;;;;;;11.40;5.03;;;;;;;;;;10109773;29;20470;-80
2024/01/03 22:08:30;;;;;;;9.57;4.73;;;;;;;;;;10126230;29;20033;-79
2024/01/03 22:13:31;;;;;;;10.50;5.23;;;;;;;;;;10121119;29;20458;-80
2024/01/03 22:18:32;;;;;;;10.83;5.47;;;;;;;;;;10127476;29;20043;-80
2024/01/03 22:23:33;;;;;;;12.27;6.00;;;;;;;;;;10117785;29;20091;-80
2024/01/03 22:28:35;;;;;;;13.33;6.53;;;;;;;;;;10126543;29;20070;-79
2024/01/03 22:33:36;;;;;;;14.67;5.87;;;;;;;;;;10123233;29;20520;-79
2024/01/03 22:38:40;;;;;;;18.40;7.50;;;;;;;;;;10125293;29;20043;-80
2024/01/03 22:43:41;;;;;;;19.67;8.80;;;;;;;;;;10123530;29;20568;-80
2024/01/03 22:48:42;;;;;;;30.03;10.43;;;;;;;;;;10124873;29;20048;-80
2024/01/03 22:53:43;;;;;;;34.57;12.17;;;;;;;;;;10123021;29;20048;-80
2024/01/03 22:58:44;;;;;;;25.90;10.07;;;;;;;;;;10124531;29;20791;-81
2024/01/03 23:03:45;;;;;;;27.43;9.93;;;;;;;;;;10108907;29;20044;-80
2024/01/03 23:08:46;;;;;;;15.33;6.97;;;;;;;;;;10123194;29;20473;-82
2024/01/03 23:13:47;;;;;;;16.60;5.97;;;;;;;;;;10125287;29;20048;-80
2024/01/03 23:18:48;;;;;;;10.47;4.30;;;;;;;;;;10126019;29;20044;-79
2024/01/03 23:23:49;;;;;;;11.10;5.13;;;;;;;;;;10120079;29;20045;-80
2024/01/03 23:28:51;;;;;;;9.13;3.73;;;;;;;;;;10123637;29;20072;-79
2024/01/03 23:33:52;;;;;;;8.00;3.23;;;;;;;;;;10122970;29;20052;-80
2024/01/03 23:38:53;;;;;;;7.17;3.93;;;;;;;;;;10124722;29;20067;-80
2024/01/03 23:43:54;;;;;;;11.50;3.73;;;;;;;;;;10124688;29;20036;-82
2024/01/03 23:48:55;;;;;;;4.63;2.83;;;;;;;;;;10117864;29;20039;-81
2024/01/03 23:53:56;;;;;;;10.17;4.40;;;;;;;;;;10106070;29;20830;-80
2024/01/03 23:58:58;;;;;;;5.37;3.07;;;;;;;;;;10105278;29;20504;-78
